createdAt,value
2022-08-31T00:00:30.147Z,10.69
2022-08-31T00:03:15.928Z,10.71
2022-08-31T00:05:45.669Z,10.66
2022-08-31T00:08:13.758Z,10.72
2022-08-31T00:10:46.121Z,10.68
2022-08-31T00:13:14.816Z,10.61
2022-08-31T00:15:43.739Z,10.66
2022-08-31T00:18:11.835Z,10.63
2022-08-31T00:20:40.372Z,10.64
2022-08-31T00:23:12.070Z,10.67
2022-08-31T00:25:42.266Z,10.46
2022-08-31T00:28:11.366Z,10.53
2022-08-31T00:30:40.308Z,10.65
2022-08-31T00:33:09.272Z,10.64
2022-08-31T00:35:38.033Z,10.46
2022-08-31T00:38:07.390Z,10.56
2022-08-31T00:40:44.536Z,10.57
2022-08-31T00:43:13.990Z,10.31
2022-08-31T00:45:42.019Z,10.49
2022-08-31T00:48:10.173Z,10.49
2022-08-31T00:50:38.114Z,10.45
2022-08-31T00:53:06.287Z,10.43
2022-08-31T00:55:37.516Z,10.45
2022-08-31T00:58:11.752Z,10.36
2022-08-31T01:00:43.220Z,10.35
2022-08-31T01:03:11.800Z,10.34
2022-08-31T01:05:41.503Z,10.31
2022-08-31T01:08:10.049Z,10.12
2022-08-31T01:10:44.113Z,10.15
2022-08-31T01:13:14.039Z,10.23
2022-08-31T01:15:51.292Z,10.05
2022-08-31T01:18:24.668Z,10.03
2022-08-31T01:21:01.476Z,10.05
2022-08-31T01:23:33.767Z,10.10
2022-08-31T01:26:04.193Z,10.08
2022-08-31T01:28:35.514Z,10.08
2022-08-31T01:31:06.426Z,10.01
2022-08-31T01:33:35.578Z,9.93
2022-08-31T01:36:04.732Z,10.00
2022-08-31T01:38:35.529Z,9.75
2022-08-31T01:41:04.762Z,9.69
2022-08-31T01:43:34.977Z,9.84
2022-08-31T01:46:06.269Z,9.75
2022-08-31T01:48:41.382Z,9.84
2022-08-31T01:51:12.615Z,9.62
2022-08-31T01:53:45.792Z,9.63
2022-08-31T01:56:20.206Z,9.48
2022-08-31T01:58:48.240Z,9.62
2022-08-31T02:01:33.289Z,9.49
2022-08-31T02:04:08.129Z,9.56
2022-08-31T02:06:37.120Z,9.47
2022-08-31T02:09:10.054Z,9.39
2022-08-31T02:11:38.374Z,9.54
2022-08-31T02:14:07.553Z,9.56
2022-08-31T02:16:35.706Z,9.43
2022-08-31T02:19:04.817Z,9.50
2022-08-31T02:21:33.149Z,9.48
2022-08-31T02:24:08.206Z,9.26
2022-08-31T02:26:36.241Z,9.40
2022-08-31T02:29:04.326Z,9.22
2022-08-31T02:31:32.261Z,9.30
2022-08-31T02:34:00.452Z,9.22
2022-08-31T02:36:28.733Z,9.15
2022-08-31T02:38:56.820Z,9.15
2022-08-31T02:41:27.028Z,9.06
2022-08-31T02:43:54.920Z,9.07
2022-08-31T02:46:23.182Z,9.06
2022-08-31T02:48:51.292Z,8.96
2022-08-31T02:51:19.331Z,8.98
2022-08-31T02:53:47.278Z,8.92
2022-08-31T02:56:16.424Z,8.85
2022-08-31T02:58:45.704Z,8.78
2022-08-31T03:01:13.750Z,8.74
2022-08-31T03:03:46.474Z,8.60
2022-08-31T03:06:17.712Z,8.66
2022-08-31T03:08:45.772Z,8.62
2022-08-31T03:11:13.993Z,8.66
2022-08-31T03:13:42.753Z,8.60
2022-08-31T03:16:14.682Z,8.78
2022-08-31T03:18:42.972Z,8.76
2022-08-31T03:21:11.043Z,8.55
2022-08-31T03:23:39.360Z,8.48
2022-08-31T03:26:08.006Z,8.28
2022-08-31T03:28:37.448Z,8.32
2022-08-31T03:31:08.952Z,8.25
2022-08-31T03:33:38.946Z,8.13
2022-08-31T03:36:07.208Z,8.02
2022-08-31T03:38:35.571Z,8.01
2022-08-31T03:41:03.958Z,8.08
2022-08-31T03:43:31.860Z,8.05
2022-08-31T03:46:00.281Z,7.84
2022-08-31T03:48:28.370Z,7.97
2022-08-31T03:50:57.722Z,7.91
2022-08-31T03:53:25.894Z,7.58
2022-08-31T03:56:01.140Z,7.78
2022-08-31T03:58:29.712Z,7.71
2022-08-31T04:00:57.893Z,7.72
2022-08-31T04:03:26.072Z,7.68
2022-08-31T04:05:54.038Z,7.70
2022-08-31T04:08:23.968Z,7.62
2022-08-31T04:10:54.079Z,7.77
2022-08-31T04:13:28.049Z,7.75
2022-08-31T04:16:00.919Z,7.81
2022-08-31T04:18:29.011Z,7.80
2022-08-31T04:20:56.892Z,7.85
2022-08-31T04:23:29.533Z,7.80
2022-08-31T04:25:58.500Z,7.83
2022-08-31T04:28:26.482Z,7.87
2022-08-31T04:30:57.476Z,7.91
2022-08-31T04:33:25.630Z,7.95
2022-08-31T04:35:53.867Z,8.00
2022-08-31T04:38:21.868Z,8.02
2022-08-31T04:40:52.477Z,8.07
2022-08-31T04:43:20.864Z,8.25
2022-08-31T04:45:52.383Z,8.34
2022-08-31T04:48:20.307Z,8.45
2022-08-31T04:50:50.818Z,8.25
2022-08-31T04:53:18.919Z,8.55
2022-08-31T04:55:47.037Z,8.62
2022-08-31T04:58:17.787Z,8.67
2022-08-31T05:00:45.911Z,8.75
2022-08-31T05:03:13.987Z,8.83
2022-08-31T05:05:42.414Z,8.95
2022-08-31T05:08:10.367Z,9.07
2022-08-31T05:10:40.414Z,9.18
2022-08-31T05:13:08.419Z,9.29
2022-08-31T05:15:44.381Z,9.46
2022-08-31T05:18:13.099Z,9.52
2022-08-31T05:20:41.903Z,9.52
2022-08-31T05:23:10.088Z,9.61
2022-08-31T05:25:40.466Z,9.57
2022-08-31T05:28:09.013Z,9.70
2022-08-31T05:30:38.532Z,9.75
2022-08-31T05:33:06.671Z,9.78
2022-08-31T05:35:35.604Z,9.80
2022-08-31T05:38:03.632Z,9.83
2022-08-31T05:40:31.597Z,9.84
2022-08-31T05:42:59.803Z,9.90
2022-08-31T05:45:28.275Z,9.86
2022-08-31T05:47:59.888Z,9.95
2022-08-31T05:50:27.713Z,9.84
2022-08-31T05:52:55.655Z,10.00
2022-08-31T05:55:23.621Z,9.98
2022-08-31T05:57:52.667Z,10.09
2022-08-31T06:00:20.898Z,10.29
2022-08-31T06:02:52.232Z,10.38
2022-08-31T06:05:23.754Z,10.60
2022-08-31T06:07:51.827Z,11.01
2022-08-31T06:10:20.940Z,11.28
2022-08-31T06:12:49.026Z,11.76
2022-08-31T06:15:18.031Z,11.99
2022-08-31T06:17:45.999Z,11.86
2022-08-31T06:20:17.702Z,12.22
2022-08-31T06:22:48.176Z,12.19
2022-08-31T06:25:20.794Z,12.48
2022-08-31T06:27:50.699Z,12.60
2022-08-31T06:30:27.298Z,12.88
2022-08-31T06:32:58.662Z,13.08
2022-08-31T06:35:26.910Z,13.50
2022-08-31T06:37:57.260Z,13.63
2022-08-31T06:40:26.425Z,13.74
2022-08-31T06:42:54.562Z,13.85
2022-08-31T06:45:22.952Z,14.05
2022-08-31T06:47:51.075Z,14.37
2022-08-31T06:50:19.180Z,14.51
2022-08-31T06:52:48.630Z,14.77
2022-08-31T06:55:18.326Z,14.95
2022-08-31T06:57:46.274Z,15.11
2022-08-31T07:00:14.429Z,15.28
2022-08-31T07:02:42.339Z,15.36
2022-08-31T07:05:15.599Z,15.52
2022-08-31T07:07:48.270Z,15.68
2022-08-31T07:10:19.441Z,15.67
2022-08-31T07:12:47.445Z,15.73
2022-08-31T07:15:15.835Z,15.77
2022-08-31T07:17:43.913Z,15.90
2022-08-31T07:20:12.933Z,15.97
2022-08-31T07:22:40.972Z,15.99
2022-08-31T07:25:11.216Z,16.14
2022-08-31T07:27:40.519Z,16.17
2022-08-31T07:30:10.070Z,16.19
2022-08-31T07:32:38.403Z,16.39
2022-08-31T07:35:07.517Z,16.50
2022-08-31T07:37:53.443Z,16.60
2022-08-31T07:40:39.133Z,16.78
2022-08-31T07:43:11.692Z,17.02
2022-08-31T07:45:41.005Z,17.18
2022-08-31T07:48:09.962Z,17.28
2022-08-31T07:50:46.751Z,17.37
2022-08-31T07:53:15.460Z,17.48
2022-08-31T07:55:48.053Z,17.68
2022-08-31T07:58:17.852Z,17.75
2022-08-31T08:00:48.738Z,17.85
2022-08-31T08:03:17.494Z,17.91
2022-08-31T08:05:45.749Z,17.95
2022-08-31T08:08:15.787Z,18.16
2022-08-31T08:10:52.163Z,18.30
2022-08-31T08:13:23.296Z,18.51
2022-08-31T08:15:56.635Z,18.73
2022-08-31T08:18:25.273Z,18.82
2022-08-31T08:20:55.104Z,18.96
2022-08-31T08:23:27.976Z,19.05
2022-08-31T08:25:59.371Z,18.95
2022-08-31T08:28:45.944Z,19.05
2022-08-31T08:31:16.886Z,19.37
2022-08-31T08:33:46.515Z,19.64
2022-08-31T08:36:19.324Z,19.91
2022-08-31T08:38:51.519Z,20.03
2022-08-31T08:41:22.145Z,20.01
2022-08-31T08:43:53.795Z,20.43
2022-08-31T08:46:35.307Z,20.58
2022-08-31T08:49:13.393Z,20.86
2022-08-31T08:51:41.654Z,20.74
2022-08-31T08:54:14.156Z,20.50
2022-08-31T08:56:47.856Z,20.55
2022-08-31T08:59:19.869Z,20.61
2022-08-31T09:01:50.621Z,20.44
2022-08-31T09:04:35.808Z,20.48
2022-08-31T09:07:23.175Z,20.33
2022-08-31T09:10:02.368Z,20.07
2022-08-31T09:12:44.724Z,19.90
2022-08-31T09:15:51.434Z,19.90
2022-08-31T09:18:36.646Z,20.15
2022-08-31T09:21:08.073Z,20.36
2022-08-31T09:23:44.506Z,20.68
2022-08-31T09:26:18.009Z,20.65
2022-08-31T09:28:52.978Z,20.61
2022-08-31T09:31:37.337Z,20.91
2022-08-31T09:34:11.142Z,21.10
2022-08-31T09:36:41.854Z,21.11
2022-08-31T09:39:21.147Z,21.52
2022-08-31T09:41:51.011Z,21.84
2022-08-31T09:44:32.653Z,22.25
2022-08-31T09:47:04.426Z,22.77
2022-08-31T09:49:36.852Z,23.15
2022-08-31T09:52:21.236Z,24.04
2022-08-31T09:55:13.906Z,24.90
2022-08-31T09:57:54.277Z,25.85
2022-08-31T10:00:34.415Z,26.18
2022-08-31T10:03:12.356Z,26.92
2022-08-31T10:05:44.712Z,26.45
2022-08-31T10:08:28.218Z,25.67
2022-08-31T10:10:58.552Z,24.58
2022-08-31T10:13:40.889Z,24.02
2022-08-31T10:16:17.126Z,23.63
2022-08-31T10:18:56.946Z,22.46
2022-08-31T10:21:36.275Z,22.47
2022-08-31T10:24:20.672Z,22.61
2022-08-31T10:26:53.989Z,21.86
2022-08-31T10:29:32.576Z,22.25
2022-08-31T10:32:06.121Z,22.58
2022-08-31T10:34:56.351Z,22.05
2022-08-31T10:37:31.716Z,21.56
2022-08-31T10:40:07.320Z,21.57
2022-08-31T10:42:39.362Z,23.38
2022-08-31T10:45:18.397Z,25.32
2022-08-31T10:47:50.298Z,26.28
2022-08-31T10:50:28.441Z,25.46
2022-08-31T10:53:13.823Z,23.98
2022-08-31T10:55:51.531Z,22.94
2022-08-31T10:58:31.380Z,22.39
2022-08-31T11:01:08.756Z,22.61
2022-08-31T11:04:04.833Z,23.39
2022-08-31T11:06:40.210Z,24.07
2022-08-31T11:09:20.504Z,24.07
2022-08-31T11:11:57.499Z,22.88
2022-08-31T11:14:45.607Z,23.26
2022-08-31T11:17:32.761Z,23.44
2022-08-31T11:20:28.306Z,23.15
2022-08-31T11:23:21.546Z,22.25
2022-08-31T11:26:29.371Z,21.37
2022-08-31T11:29:03.031Z,20.98
2022-08-31T11:31:35.413Z,21.33
2022-08-31T11:34:16.432Z,21.96
2022-08-31T11:36:50.263Z,22.18
2022-08-31T11:39:44.455Z,21.67
2022-08-31T11:42:38.213Z,21.07
2022-08-31T11:45:12.918Z,20.84
2022-08-31T11:47:44.491Z,20.91
2022-08-31T11:50:29.123Z,20.99
2022-08-31T11:53:00.359Z,21.08
2022-08-31T11:55:30.703Z,21.23
2022-08-31T11:58:26.682Z,21.31
2022-08-31T12:01:03.010Z,21.34
2022-08-31T12:03:50.897Z,21.18
2022-08-31T12:07:07.313Z,21.16
2022-08-31T12:10:13.232Z,21.06
2022-08-31T12:13:07.548Z,21.03
2022-08-31T12:15:53.088Z,20.86
2022-08-31T12:18:40.526Z,20.51
2022-08-31T12:21:31.319Z,20.26
2022-08-31T12:24:15.389Z,19.84
2022-08-31T12:26:58.863Z,19.73
2022-08-31T12:29:30.690Z,19.61
2022-08-31T12:32:15.121Z,19.88
2022-08-31T12:34:50.406Z,20.24
2022-08-31T12:37:27.175Z,20.45
2022-08-31T12:40:16.057Z,20.57
2022-08-31T12:42:53.432Z,20.71
2022-08-31T12:45:28.747Z,20.79
2022-08-31T12:48:07.500Z,20.81
2022-08-31T12:50:46.685Z,20.96
2022-08-31T12:53:46.936Z,21.13
2022-08-31T12:56:21.447Z,21.55
2022-08-31T12:59:03.955Z,21.77
2022-08-31T13:01:32.144Z,21.55
2022-08-31T13:04:04.879Z,20.71
2022-08-31T13:06:37.220Z,19.55
2022-08-31T13:09:06.754Z,18.32
2022-08-31T13:11:41.102Z,17.47
2022-08-31T13:14:13.585Z,16.82
2022-08-31T13:16:44.407Z,16.60
2022-08-31T13:19:19.271Z,16.41
2022-08-31T13:21:53.082Z,16.34
2022-08-31T13:24:28.953Z,16.35
2022-08-31T13:27:13.138Z,16.41
2022-08-31T13:29:45.525Z,16.47
2022-08-31T13:32:16.205Z,16.55
2022-08-31T13:34:44.114Z,16.83
2022-08-31T13:37:21.126Z,17.07
2022-08-31T13:39:49.147Z,17.47
2022-08-31T13:42:33.986Z,17.69
2022-08-31T13:45:07.478Z,17.98
2022-08-31T13:47:51.885Z,18.04
2022-08-31T13:50:32.975Z,18.38
2022-08-31T13:53:26.062Z,19.03
2022-08-31T13:55:52.753Z,19.44
2022-08-31T13:58:28.685Z,19.91
2022-08-31T14:01:24.956Z,20.32
2022-08-31T14:03:56.467Z,20.70
2022-08-31T14:06:26.821Z,20.55
2022-08-31T14:09:03.286Z,20.13
2022-08-31T14:11:32.235Z,19.30
2022-08-31T14:14:06.113Z,18.47
2022-08-31T14:16:37.172Z,18.02
2022-08-31T14:19:05.979Z,18.12
2022-08-31T14:21:35.362Z,18.40
2022-08-31T14:24:07.893Z,19.37
2022-08-31T14:26:41.002Z,21.26
2022-08-31T14:29:12.248Z,23.77
2022-08-31T14:31:46.920Z,25.38
2022-08-31T14:34:22.419Z,27.04
2022-08-31T14:36:54.198Z,27.17
2022-08-31T14:39:26.802Z,26.55
2022-08-31T14:41:57.405Z,25.55
2022-08-31T14:44:29.219Z,25.14
2022-08-31T14:46:57.346Z,23.95
2022-08-31T14:49:25.887Z,24.30
2022-08-31T14:51:53.854Z,24.59
2022-08-31T14:54:24.915Z,24.76
2022-08-31T14:56:56.256Z,25.64
2022-08-31T14:59:24.300Z,24.23
2022-08-31T15:01:52.351Z,23.06
2022-08-31T15:04:21.922Z,22.03
2022-08-31T15:06:55.059Z,23.14
2022-08-31T15:09:24.410Z,24.92
2022-08-31T15:11:52.506Z,26.12
2022-08-31T15:14:20.954Z,26.41
2022-08-31T15:16:50.763Z,26.77
2022-08-31T15:19:19.054Z,25.61
2022-08-31T15:21:52.845Z,24.40
2022-08-31T15:24:28.330Z,23.16
2022-08-31T15:27:00.107Z,21.69
2022-08-31T15:29:30.577Z,20.66
2022-08-31T15:32:00.499Z,19.85
2022-08-31T15:34:31.208Z,19.07
2022-08-31T15:37:02.202Z,18.73
2022-08-31T15:39:35.654Z,18.27
2022-08-31T15:42:09.369Z,17.95
2022-08-31T15:44:37.902Z,17.55
2022-08-31T15:47:24.747Z,17.33
2022-08-31T15:49:52.996Z,17.17
2022-08-31T15:52:21.181Z,17.07
2022-08-31T15:54:50.528Z,16.83
2022-08-31T15:57:19.105Z,16.77
2022-08-31T15:59:47.195Z,16.78
2022-08-31T16:02:20.502Z,16.72
2022-08-31T16:04:50.664Z,16.62
2022-08-31T16:07:19.081Z,16.32
2022-08-31T16:09:47.402Z,16.29
2022-08-31T16:12:21.191Z,16.21
2022-08-31T16:14:51.739Z,16.18
2022-08-31T16:17:20.148Z,16.10
2022-08-31T16:19:53.809Z,15.91
2022-08-31T16:22:22.600Z,15.60
2022-08-31T16:24:57.531Z,15.83
2022-08-31T16:27:26.958Z,15.75
2022-08-31T16:29:54.968Z,15.70
2022-08-31T16:32:25.324Z,15.56
2022-08-31T16:34:54.906Z,15.37
2022-08-31T16:37:22.803Z,15.39
2022-08-31T16:39:50.865Z,15.35
2022-08-31T16:42:19.120Z,15.25
2022-08-31T16:44:48.723Z,15.14
2022-08-31T16:47:18.989Z,15.03
2022-08-31T16:49:46.882Z,14.90
2022-08-31T16:52:18.246Z,14.78
2022-08-31T16:54:48.764Z,14.61
2022-08-31T16:57:20.733Z,14.45
2022-08-31T16:59:51.540Z,14.28
2022-08-31T17:02:21.119Z,14.11
2022-08-31T17:04:52.619Z,14.03
2022-08-31T17:07:23.757Z,13.84
2022-08-31T17:09:52.743Z,13.65
2022-08-31T17:12:26.090Z,13.52
2022-08-31T17:14:56.145Z,13.40
2022-08-31T17:17:26.205Z,13.27
2022-08-31T17:19:55.709Z,13.11
2022-08-31T17:22:31.856Z,13.16
2022-08-31T17:25:03.198Z,12.99
2022-08-31T17:27:33.084Z,12.88
2022-08-31T17:30:05.967Z,12.82
2022-08-31T17:32:39.381Z,12.69
2022-08-31T17:35:18.056Z,12.51
2022-08-31T17:37:46.217Z,12.30
2022-08-31T17:40:14.465Z,12.37
2022-08-31T17:42:42.587Z,12.26
2022-08-31T17:45:13.046Z,12.12
2022-08-31T17:47:41.313Z,12.02
2022-08-31T17:50:12.463Z,11.94
2022-08-31T17:52:40.576Z,11.84
2022-08-31T17:55:09.164Z,11.74
2022-08-31T17:57:38.744Z,11.58
2022-08-31T18:00:08.008Z,11.55
2022-08-31T18:02:38.501Z,11.35
2022-08-31T18:05:11.392Z,11.22
2022-08-31T18:07:40.995Z,11.18
2022-08-31T18:10:10.784Z,11.03
2022-08-31T18:12:41.989Z,10.97
2022-08-31T18:15:12.088Z,10.85
2022-08-31T18:17:45.477Z,10.74
2022-08-31T18:20:13.684Z,10.74
2022-08-31T18:22:41.991Z,10.66
2022-08-31T18:25:11.291Z,10.52
2022-08-31T18:27:39.158Z,10.43
2022-08-31T18:30:08.979Z,10.23
2022-08-31T18:32:37.309Z,10.23
2022-08-31T18:35:11.275Z,10.13
2022-08-31T18:37:39.296Z,10.06
2022-08-31T18:40:25.914Z,10.01
2022-08-31T18:43:11.313Z,9.97
2022-08-31T18:45:39.889Z,9.90
2022-08-31T18:48:24.299Z,9.79
2022-08-31T18:50:59.163Z,9.63
2022-08-31T18:53:30.226Z,9.68
2022-08-31T18:56:00.630Z,9.60
2022-08-31T18:58:29.967Z,9.71
2022-08-31T19:00:59.293Z,9.68
2022-08-31T19:03:31.123Z,9.69
2022-08-31T19:06:01.116Z,9.69
2022-08-31T19:08:33.972Z,9.63
2022-08-31T19:11:05.345Z,9.57
2022-08-31T19:13:33.545Z,9.56
2022-08-31T19:16:15.209Z,9.40
2022-08-31T19:18:45.136Z,9.46
2022-08-31T19:21:18.662Z,9.31
2022-08-31T19:23:51.706Z,9.21
2022-08-31T19:26:23.147Z,9.37
2022-08-31T19:28:51.648Z,9.29
2022-08-31T19:31:21.210Z,9.33
2022-08-31T19:33:56.077Z,9.23
2022-08-31T19:36:30.315Z,9.15
2022-08-31T19:38:59.671Z,9.18
2022-08-31T19:41:29.095Z,9.15
2022-08-31T19:44:09.035Z,9.11
2022-08-31T19:46:41.080Z,9.14
2022-08-31T19:49:11.681Z,8.91
2022-08-31T19:51:43.842Z,9.11
2022-08-31T19:54:13.037Z,9.04
2022-08-31T19:56:43.832Z,8.93
2022-08-31T19:59:18.594Z,9.05
2022-08-31T20:01:50.274Z,8.98
2022-08-31T20:04:19.420Z,8.93
2022-08-31T20:06:52.180Z,8.62
2022-08-31T20:09:22.740Z,8.77
2022-08-31T20:11:51.982Z,8.60
2022-08-31T20:14:22.140Z,8.75
2022-08-31T20:16:51.294Z,8.86
2022-08-31T20:19:25.162Z,8.56
2022-08-31T20:22:02.879Z,8.75
2022-08-31T20:24:30.905Z,8.86
2022-08-31T20:27:09.510Z,8.87
2022-08-31T20:29:38.962Z,8.87
2022-08-31T20:32:08.088Z,8.85
2022-08-31T20:34:37.545Z,8.79
2022-08-31T20:37:07.606Z,8.85
2022-08-31T20:39:37.255Z,8.85
2022-08-31T20:42:07.094Z,8.94
2022-08-31T20:44:38.704Z,8.89
2022-08-31T20:47:26.682Z,8.97
2022-08-31T20:49:56.524Z,8.94
2022-08-31T20:52:29.888Z,8.88
2022-08-31T20:55:02.200Z,8.64
2022-08-31T20:57:31.786Z,8.76
2022-08-31T21:00:05.825Z,8.74
2022-08-31T21:02:35.060Z,9.04
2022-08-31T21:05:27.188Z,9.05
2022-08-31T21:07:57.273Z,9.04
2022-08-31T21:10:36.190Z,9.08
2022-08-31T21:13:07.134Z,9.08
2022-08-31T21:15:35.224Z,9.09
2022-08-31T21:18:03.173Z,9.09
2022-08-31T21:20:32.823Z,9.10
2022-08-31T21:23:02.201Z,9.13
2022-08-31T21:25:30.329Z,9.15
2022-08-31T21:28:00.122Z,9.18
2022-08-31T21:30:29.424Z,9.18
2022-08-31T21:32:57.274Z,9.28
2022-08-31T21:35:26.717Z,9.33
2022-08-31T21:37:54.728Z,9.46
2022-08-31T21:40:24.392Z,9.43
2022-08-31T21:42:52.398Z,9.50
2022-08-31T21:45:20.875Z,9.51
2022-08-31T21:47:48.685Z,9.60
2022-08-31T21:50:16.674Z,9.64
2022-08-31T21:52:44.590Z,9.75
2022-08-31T21:55:13.675Z,9.84
2022-08-31T21:57:43.795Z,9.81
2022-08-31T22:00:17.519Z,9.76
2022-08-31T22:02:50.975Z,9.76
2022-08-31T22:05:19.126Z,9.68
2022-08-31T22:07:47.103Z,9.61
2022-08-31T22:10:15.107Z,9.54
2022-08-31T22:12:44.452Z,9.52
2022-08-31T22:15:16.846Z,9.46
2022-08-31T22:18:06.017Z,9.51
2022-08-31T22:20:33.874Z,9.48
2022-08-31T22:23:02.430Z,9.49
2022-08-31T22:25:33.479Z,9.43
2022-08-31T22:28:06.141Z,9.39
2022-08-31T22:30:36.287Z,9.34
2022-08-31T22:33:04.325Z,9.30
2022-08-31T22:35:32.380Z,9.20
2022-08-31T22:38:00.243Z,9.22
2022-08-31T22:40:28.697Z,9.21
2022-08-31T22:42:58.732Z,9.23
2022-08-31T22:45:28.162Z,9.18
2022-08-31T22:47:56.069Z,9.05
2022-08-31T22:50:24.194Z,9.24
2022-08-31T22:52:52.095Z,9.24
2022-08-31T22:55:20.185Z,9.18
2022-08-31T22:57:48.179Z,9.08
2022-08-31T23:00:17.639Z,9.13
2022-08-31T23:02:46.979Z,9.09
2022-08-31T23:05:16.285Z,8.99
2022-08-31T23:07:44.278Z,9.05
2022-08-31T23:10:18.645Z,9.09
2022-08-31T23:12:51.123Z,9.09
2022-08-31T23:15:21.924Z,9.05
2022-08-31T23:17:52.618Z,9.09
2022-08-31T23:20:24.552Z,9.08
2022-08-31T23:22:55.002Z,9.02
2022-08-31T23:25:25.252Z,8.99
2022-08-31T23:27:53.561Z,8.96
2022-08-31T23:30:22.594Z,9.02
2022-08-31T23:32:53.403Z,8.94
2022-08-31T23:35:22.074Z,8.84
2022-08-31T23:37:52.395Z,8.83
2022-08-31T23:40:20.457Z,8.87
2022-08-31T23:42:48.665Z,8.82
2022-08-31T23:45:17.417Z,8.78
2022-08-31T23:47:45.775Z,8.78
2022-08-31T23:50:14.994Z,8.79
2022-08-31T23:52:43.815Z,8.57
2022-08-31T23:55:12.664Z,8.63
2022-08-31T23:57:44.690Z,8.64
